createdAt,value
2023-01-30T00:01:38.849Z,21.20
2023-01-30T00:05:11.577Z,24.80
2023-01-30T00:12:08.333Z,24.20
2023-01-30T00:15:35.447Z,22.80
2023-01-30T00:19:03.345Z,19.20
2023-01-30T00:22:33.022Z,23.60
2023-01-30T00:26:00.786Z,19.40
2023-01-30T00:29:29.110Z,23.70
2023-01-30T00:33:01.381Z,22.40
2023-01-30T00:36:30.912Z,22.00
2023-01-30T00:40:00.269Z,21.20
2023-01-30T00:43:45.840Z,18.20
2023-01-30T00:47:17.957Z,21.30
2023-01-30T00:50:45.946Z,20.80
2023-01-30T00:54:17.507Z,20.20
2023-01-30T00:57:47.146Z,23.80
2023-01-30T01:01:14.486Z,19.80
2023-01-30T01:04:44.919Z,19.00
2023-01-30T01:08:12.419Z,23.70
2023-01-30T01:11:40.715Z,19.70
2023-01-30T01:15:11.186Z,19.90
2023-01-30T01:18:41.042Z,21.70
2023-01-30T01:22:10.555Z,21.10
2023-01-30T01:25:40.109Z,22.90
2023-01-30T01:29:07.523Z,25.90
2023-01-30T01:32:35.053Z,22.90
2023-01-30T01:36:03.678Z,24.10
2023-01-30T01:39:46.163Z,23.20
2023-01-30T01:43:25.285Z,24.10
2023-01-30T01:46:59.684Z,20.90
2023-01-30T01:50:32.776Z,23.50
2023-01-30T01:54:09.442Z,21.10
2023-01-30T01:57:43.877Z,19.60
2023-01-30T02:01:12.548Z,21.60
2023-01-30T02:05:00.301Z,22.00
2023-01-30T02:08:33.666Z,22.30
2023-01-30T02:12:05.116Z,21.10
2023-01-30T02:15:32.187Z,24.70
2023-01-30T02:18:59.947Z,23.50
2023-01-30T02:23:00.887Z,25.90
2023-01-30T02:26:53.823Z,24.60
2023-01-30T02:30:46.613Z,25.30
2023-01-30T02:34:33.337Z,23.10
2023-01-30T02:38:13.995Z,26.50
2023-01-30T02:41:51.002Z,23.60
2023-01-30T02:45:26.740Z,25.10
2023-01-30T02:49:01.082Z,24.40
2023-01-30T02:52:30.527Z,22.30
2023-01-30T02:55:57.947Z,21.40
2023-01-30T02:59:28.975Z,22.80
2023-01-30T03:03:35.459Z,24.50
2023-01-30T03:07:27.229Z,26.20
2023-01-30T03:11:02.797Z,25.70
2023-01-30T03:14:37.568Z,25.10
2023-01-30T03:18:06.079Z,29.20
2023-01-30T03:21:32.809Z,26.90
2023-01-30T03:25:00.312Z,23.90
2023-01-30T03:28:28.275Z,22.20
2023-01-30T03:31:55.367Z,23.60
2023-01-30T03:35:22.587Z,25.80
2023-01-30T03:38:49.685Z,26.20
2023-01-30T03:42:17.384Z,24.90
2023-01-30T03:45:46.173Z,24.40
2023-01-30T03:49:13.513Z,26.70
2023-01-30T03:52:40.930Z,25.70
2023-01-30T03:56:11.235Z,26.80
2023-01-30T03:59:38.942Z,23.80
2023-01-30T04:03:09.061Z,23.80
2023-01-30T04:06:39.530Z,24.90
2023-01-30T04:10:07.760Z,24.10
2023-01-30T04:13:34.618Z,22.70
2023-01-30T04:17:01.810Z,21.70
2023-01-30T04:20:52.579Z,23.40
2023-01-30T04:24:24.905Z,25.00
2023-01-30T04:27:52.359Z,21.60
2023-01-30T04:31:22.831Z,24.50
2023-01-30T04:35:05.175Z,25.60
2023-01-30T04:38:33.910Z,28.50
2023-01-30T04:42:04.091Z,26.60
2023-01-30T04:45:36.603Z,26.30
2023-01-30T04:49:03.687Z,24.60
2023-01-30T04:52:30.433Z,22.60
2023-01-30T04:55:58.464Z,23.50
2023-01-30T04:59:26.331Z,21.00
2023-01-30T05:02:56.256Z,19.70
2023-01-30T05:06:23.304Z,22.50
2023-01-30T05:09:50.200Z,21.60
2023-01-30T05:13:16.849Z,22.60
2023-01-30T05:16:44.203Z,21.80
2023-01-30T05:20:14.220Z,18.20
2023-01-30T05:23:41.508Z,20.40
2023-01-30T05:27:08.105Z,19.00
2023-01-30T05:30:35.057Z,20.20
2023-01-30T05:34:02.892Z,23.10
2023-01-30T05:37:30.100Z,20.40
2023-01-30T05:41:03.458Z,22.70
2023-01-30T05:44:30.396Z,19.00
2023-01-30T05:48:01.560Z,21.40
2023-01-30T05:51:30.290Z,20.60
2023-01-30T05:54:57.817Z,17.20
2023-01-30T05:58:25.243Z,17.60
2023-01-30T06:01:51.628Z,17.90
2023-01-30T06:05:19.800Z,18.30
2023-01-30T06:08:47.069Z,18.10
2023-01-30T06:12:14.458Z,17.00
2023-01-30T06:15:43.395Z,16.50
2023-01-30T06:19:11.491Z,18.80
2023-01-30T06:22:41.625Z,18.70
2023-01-30T06:26:09.390Z,20.90
2023-01-30T06:29:38.816Z,17.60
2023-01-30T06:33:05.556Z,21.80
2023-01-30T06:36:32.765Z,21.30
2023-01-30T06:39:59.390Z,24.10
2023-01-30T06:43:28.613Z,20.80
2023-01-30T06:46:56.116Z,22.20
2023-01-30T06:50:25.304Z,21.60
2023-01-30T06:53:53.306Z,17.50
2023-01-30T06:57:20.557Z,19.50
2023-01-30T07:00:47.107Z,17.20
2023-01-30T07:04:14.127Z,19.00
2023-01-30T07:07:41.413Z,17.10
2023-01-30T07:11:10.693Z,17.40
2023-01-30T07:14:38.133Z,16.60
2023-01-30T07:18:06.624Z,16.50
2023-01-30T07:21:33.614Z,17.20
2023-01-30T07:25:01.087Z,18.00
2023-01-30T07:28:29.236Z,18.60
2023-01-30T07:31:55.977Z,18.00
2023-01-30T07:35:23.828Z,20.70
2023-01-30T07:38:52.982Z,16.90
2023-01-30T07:42:19.818Z,18.40
2023-01-30T07:45:52.562Z,21.40
2023-01-30T07:49:20.433Z,19.50
2023-01-30T07:52:51.915Z,22.40
2023-01-30T07:56:20.770Z,31.30
2023-01-30T07:59:47.929Z,18.50
2023-01-30T08:03:17.940Z,16.30
2023-01-30T08:06:44.989Z,19.10
2023-01-30T08:10:15.302Z,28.40
2023-01-30T08:13:42.181Z,27.60
2023-01-30T08:17:08.844Z,25.30
2023-01-30T08:20:36.383Z,26.00
2023-01-30T08:24:03.128Z,21.30
2023-01-30T08:27:30.877Z,20.80
2023-01-30T08:30:58.419Z,19.00
2023-01-30T08:34:25.226Z,16.50
2023-01-30T08:37:51.856Z,19.50
2023-01-30T08:41:18.374Z,19.40
2023-01-30T08:44:45.165Z,17.20
2023-01-30T08:48:13.067Z,17.50
2023-01-30T08:51:39.988Z,16.60
2023-01-30T08:55:07.039Z,17.20
2023-01-30T08:58:33.729Z,16.40
2023-01-30T09:02:00.442Z,15.50
2023-01-30T09:05:31.223Z,14.80
2023-01-30T09:08:58.134Z,14.70
2023-01-30T09:12:25.539Z,14.70
2023-01-30T09:15:52.626Z,13.80
2023-01-30T09:19:20.037Z,11.00
2023-01-30T09:22:47.245Z,11.70
2023-01-30T09:26:16.758Z,13.20
2023-01-30T09:29:45.254Z,11.60
2023-01-30T09:33:30.320Z,11.80
2023-01-30T09:37:18.559Z,11.60
2023-01-30T09:41:15.829Z,11.50
2023-01-30T09:45:34.649Z,10.20
2023-01-30T09:49:29.693Z,11.10
2023-01-30T09:53:24.102Z,12.40
2023-01-30T09:57:23.963Z,14.80
2023-01-30T10:01:06.695Z,12.50
2023-01-30T10:04:38.106Z,14.70
2023-01-30T10:08:25.618Z,14.10
2023-01-30T10:12:04.752Z,14.00
2023-01-30T10:15:50.464Z,13.80
2023-01-30T10:19:38.038Z,17.70
2023-01-30T10:23:16.270Z,13.50
2023-01-30T10:26:43.925Z,17.00
2023-01-30T10:30:19.221Z,14.50
2023-01-30T10:33:55.988Z,15.60
2023-01-30T10:37:31.523Z,15.70
2023-01-30T10:41:02.910Z,15.50
2023-01-30T10:44:29.846Z,14.50
2023-01-30T10:48:11.574Z,15.00
2023-01-30T10:51:49.802Z,14.60
2023-01-30T10:55:36.409Z,17.10
2023-01-30T10:59:15.939Z,13.90
2023-01-30T11:02:55.157Z,15.90
2023-01-30T11:06:25.733Z,17.60
2023-01-30T11:09:52.672Z,22.20
2023-01-30T11:13:22.091Z,23.40
2023-01-30T11:16:53.039Z,21.30
2023-01-30T11:20:22.494Z,20.00
2023-01-30T11:23:51.252Z,17.50
2023-01-30T11:27:26.119Z,16.70
2023-01-30T11:30:58.878Z,17.90
2023-01-30T11:34:26.885Z,18.10
2023-01-30T11:37:54.918Z,12.00
2023-01-30T11:41:25.208Z,12.90
2023-01-30T11:45:16.098Z,15.30
2023-01-30T11:49:01.430Z,13.50
2023-01-30T11:52:40.210Z,14.20
2023-01-30T11:56:16.866Z,13.50
2023-01-30T11:59:48.077Z,12.30
2023-01-30T12:03:18.396Z,11.80
2023-01-30T12:06:46.658Z,14.40
2023-01-30T12:10:32.007Z,17.20
2023-01-30T12:14:10.475Z,19.20
2023-01-30T12:17:46.545Z,17.00
2023-01-30T12:21:22.165Z,13.90
2023-01-30T12:24:58.868Z,14.30
2023-01-30T12:28:35.459Z,13.70
2023-01-30T12:32:13.064Z,14.60
2023-01-30T12:35:55.286Z,12.50
2023-01-30T12:39:41.994Z,11.20
2023-01-30T12:43:29.925Z,13.00
2023-01-30T12:47:15.459Z,17.00
2023-01-30T12:50:58.542Z,15.80
2023-01-30T12:54:37.927Z,14.40
2023-01-30T12:58:15.651Z,13.90
2023-01-30T13:01:50.793Z,15.10
2023-01-30T13:05:35.000Z,13.00
2023-01-30T13:09:18.791Z,13.10
2023-01-30T13:12:52.911Z,12.90
2023-01-30T13:16:29.782Z,13.50
2023-01-30T13:20:04.482Z,12.20
2023-01-30T13:23:43.142Z,10.20
2023-01-30T13:27:16.766Z,10.80
2023-01-30T13:30:46.022Z,10.20
2023-01-30T13:34:23.699Z,10.00
2023-01-30T13:37:53.083Z,9.40
2023-01-30T13:41:23.567Z,12.00
2023-01-30T13:44:53.302Z,12.60
2023-01-30T13:48:34.884Z,15.60
2023-01-30T13:52:13.695Z,11.10
2023-01-30T13:55:49.668Z,11.80
2023-01-30T13:59:31.521Z,8.80
2023-01-30T14:03:24.674Z,12.80
2023-01-30T14:06:52.709Z,10.00
2023-01-30T14:10:24.104Z,10.20
2023-01-30T14:14:00.193Z,8.00
2023-01-30T14:17:27.840Z,12.20
2023-01-30T14:21:14.237Z,9.70
2023-01-30T14:24:41.198Z,14.30
2023-01-30T14:28:46.335Z,10.50
2023-01-30T14:32:53.703Z,13.30
2023-01-30T14:36:49.107Z,9.50
2023-01-30T14:40:41.153Z,9.70
2023-01-30T14:44:40.213Z,16.10
2023-01-30T14:48:37.748Z,12.80
2023-01-30T14:52:07.535Z,13.00
2023-01-30T14:55:34.537Z,13.00
2023-01-30T14:59:05.376Z,10.70
2023-01-30T15:02:36.164Z,12.80
2023-01-30T15:06:04.296Z,13.90
2023-01-30T15:09:33.348Z,15.70
2023-01-30T15:13:28.178Z,16.90
2023-01-30T15:17:12.590Z,15.80
2023-01-30T15:20:52.337Z,15.80
2023-01-30T15:24:45.202Z,11.80
2023-01-30T15:28:30.808Z,13.00
2023-01-30T15:32:02.428Z,16.70
2023-01-30T15:35:32.128Z,17.60
2023-01-30T15:39:06.444Z,17.50
2023-01-30T15:42:39.755Z,24.00
2023-01-30T15:46:18.548Z,27.10
2023-01-30T15:49:58.394Z,22.00
2023-01-30T15:53:31.469Z,17.90
2023-01-30T15:57:03.273Z,16.80
2023-01-30T16:00:38.701Z,16.00
2023-01-30T16:04:27.107Z,15.50
2023-01-30T16:07:58.093Z,14.50
2023-01-30T16:11:38.758Z,13.20
2023-01-30T16:15:19.362Z,23.70
2023-01-30T16:18:54.786Z,16.40
2023-01-30T16:22:24.644Z,12.50
2023-01-30T16:25:56.110Z,10.80
2023-01-30T16:29:27.267Z,12.70
2023-01-30T16:32:58.408Z,12.00
2023-01-30T16:36:40.307Z,8.70
2023-01-30T16:40:20.588Z,15.80
2023-01-30T16:43:48.858Z,12.40
2023-01-30T16:47:27.832Z,19.10
2023-01-30T16:51:20.302Z,14.30
2023-01-30T16:54:52.236Z,13.70
2023-01-30T16:58:20.829Z,7.40
2023-01-30T17:01:54.402Z,8.70
2023-01-30T17:05:27.164Z,8.70
2023-01-30T17:08:58.627Z,12.90
2023-01-30T17:12:50.950Z,7.60
2023-01-30T17:16:36.531Z,10.50
2023-01-30T17:20:04.226Z,8.10
2023-01-30T17:23:32.861Z,8.70
2023-01-30T17:27:04.279Z,11.30
2023-01-30T17:30:31.817Z,7.30
2023-01-30T17:33:59.591Z,7.00
2023-01-30T17:37:27.600Z,8.70
2023-01-30T17:40:54.858Z,9.40
2023-01-30T17:44:24.881Z,9.20
2023-01-30T17:47:51.640Z,10.50
2023-01-30T17:51:19.409Z,10.40
2023-01-30T17:54:46.488Z,8.90
2023-01-30T17:58:19.256Z,8.50
2023-01-30T18:01:48.109Z,11.30
2023-01-30T18:05:15.037Z,7.20
2023-01-30T18:08:42.281Z,12.00
2023-01-30T18:12:14.737Z,11.70
2023-01-30T18:15:49.320Z,8.80
2023-01-30T18:19:18.732Z,9.30
2023-01-30T18:22:46.737Z,6.80
2023-01-30T18:26:15.008Z,10.80
2023-01-30T18:29:43.989Z,11.50
2023-01-30T18:33:12.032Z,14.60
2023-01-30T18:36:41.804Z,11.50
2023-01-30T18:40:14.215Z,11.90
2023-01-30T18:43:42.820Z,15.40
2023-01-30T18:47:11.775Z,15.40
2023-01-30T18:50:40.100Z,15.40
2023-01-30T18:54:07.562Z,14.90
2023-01-30T18:57:35.018Z,10.50
2023-01-30T19:01:12.057Z,16.10
2023-01-30T19:04:39.692Z,10.70
2023-01-30T19:08:06.680Z,9.90
2023-01-30T19:11:51.618Z,10.50
2023-01-30T19:15:18.830Z,7.90
2023-01-30T19:18:45.764Z,14.20
2023-01-30T19:22:12.526Z,9.70
2023-01-30T19:25:40.149Z,11.00
2023-01-30T19:29:07.069Z,8.60
2023-01-30T19:32:35.000Z,10.60
2023-01-30T19:36:12.817Z,7.30
2023-01-30T19:39:39.831Z,13.10
2023-01-30T19:43:10.804Z,9.40
2023-01-30T19:46:38.617Z,9.80
2023-01-30T19:50:06.595Z,13.50
2023-01-30T19:53:33.788Z,17.20
2023-01-30T19:57:00.804Z,19.60
2023-01-30T20:00:28.595Z,19.00
2023-01-30T20:03:57.564Z,15.30
2023-01-30T20:07:24.429Z,16.90
2023-01-30T20:10:51.449Z,16.50
2023-01-30T20:14:19.615Z,17.30
2023-01-30T20:17:47.174Z,12.70
2023-01-30T20:21:17.242Z,15.30
2023-01-30T20:24:44.798Z,18.70
2023-01-30T20:28:11.497Z,13.60
2023-01-30T20:31:39.810Z,15.60
2023-01-30T20:35:08.066Z,18.80
2023-01-30T20:38:37.197Z,26.10
2023-01-30T20:42:06.422Z,18.20
2023-01-30T20:45:35.827Z,24.20
2023-01-30T20:49:23.188Z,22.90
2023-01-30T20:52:53.493Z,22.80
2023-01-30T20:56:27.703Z,17.30
2023-01-30T20:59:56.829Z,20.50
2023-01-30T21:03:27.552Z,21.30
2023-01-30T21:06:57.997Z,21.40
2023-01-30T21:10:28.457Z,19.70
2023-01-30T21:14:02.251Z,17.00
2023-01-30T21:17:32.668Z,17.70
2023-01-30T21:21:07.114Z,19.70
2023-01-30T21:24:36.733Z,16.90
2023-01-30T21:28:06.211Z,22.60
2023-01-30T21:31:38.020Z,22.40
2023-01-30T21:35:05.903Z,18.20
2023-01-30T21:38:55.890Z,16.70
2023-01-30T21:42:41.906Z,24.20
2023-01-30T21:46:18.896Z,20.60
2023-01-30T21:49:46.704Z,19.30
2023-01-30T21:53:19.859Z,14.30
2023-01-30T21:56:48.937Z,11.20
2023-01-30T22:00:19.702Z,11.80
2023-01-30T22:03:48.609Z,16.80
2023-01-30T22:07:19.905Z,14.20
2023-01-30T22:10:53.183Z,15.20
2023-01-30T22:14:23.272Z,15.40
2023-01-30T22:17:57.039Z,18.90
2023-01-30T22:21:26.442Z,13.10
2023-01-30T22:24:56.752Z,16.90
2023-01-30T22:28:31.238Z,14.50
2023-01-30T22:32:03.740Z,17.20
2023-01-30T22:35:35.025Z,17.20
2023-01-30T22:39:07.147Z,17.70
2023-01-30T22:42:38.312Z,15.90
2023-01-30T22:46:11.023Z,17.30
2023-01-30T22:49:38.218Z,18.70
2023-01-30T22:53:13.336Z,13.00
2023-01-30T22:56:43.201Z,17.50
2023-01-30T23:00:12.999Z,13.60
2023-01-30T23:03:48.730Z,16.10
2023-01-30T23:07:18.269Z,18.10
2023-01-30T23:10:46.667Z,15.80
2023-01-30T23:14:16.952Z,19.60
2023-01-30T23:18:09.948Z,22.00
2023-01-30T23:21:43.394Z,18.50
2023-01-30T23:25:12.933Z,13.60
2023-01-30T23:28:42.510Z,12.70
2023-01-30T23:32:10.780Z,17.30
2023-01-30T23:35:40.830Z,18.00
2023-01-30T23:39:14.861Z,17.20
2023-01-30T23:46:22.678Z,15.20
2023-01-30T23:49:50.043Z,22.60
2023-01-30T23:53:22.390Z,17.40
2023-01-30T23:56:50.719Z,19.50
